sensor_id;sensor_type;location;lat;lon;timestamp;temperature;humidity
8214;DHT22;4148;47.974;7.824;2024-03-08T00:00:19;2.20;99.90
8214;DHT22;4148;47.974;7.824;2024-03-08T00:02:47;2.20;99.90
8214;DHT22;4148;47.974;7.824;2024-03-08T00:05:17;2.20;99.90
8214;DHT22;4148;47.974;7.824;2024-03-08T00:07:46;2.20;99.90
8214;DHT22;4148;47.974;7.824;2024-03-08T00:10:15;2.30;99.90
8214;DHT22;4148;47.974;7.824;2024-03-08T00:12:44;2.50;1.00
8214;DHT22;4148;47.974;7.824;2024-03-08T00:15:15;2.70;99.90
8214;DHT22;4148;47.974;7.824;2024-03-08T00:17:45;2.90;99.90
8214;DHT22;4148;47.974;7.824;2024-03-08T00:20:15;3.00;74.80
8214;DHT22;4148;47.974;7.824;2024-03-08T00:22:46;2.90;30.80
8214;DHT22;4148;47.974;7.824;2024-03-08T00:25:15;2.90;20.40
8214;DHT22;4148;47.974;7.824;2024-03-08T00:27:43;2.90;1.00
8214;DHT22;4148;47.974;7.824;2024-03-08T00:30:11;2.90;99.90
8214;DHT22;4148;47.974;7.824;2024-03-08T00:32:41;2.80;1.00
8214;DHT22;4148;47.974;7.824;2024-03-08T00:35:09;2.70;1.00
8214;DHT22;4148;47.974;7.824;2024-03-08T00:37:39;2.70;1.00
8214;DHT22;4148;47.974;7.824;2024-03-08T00:40:08;2.70;99.90
8214;DHT22;4148;47.974;7.824;2024-03-08T00:42:37;2.60;1.00
8214;DHT22;4148;47.974;7.824;2024-03-08T00:45:07;2.70;99.90
8214;DHT22;4148;47.974;7.824;2024-03-08T00:47:37;2.80;1.00
8214;DHT22;4148;47.974;7.824;2024-03-08T00:50:06;2.70;1.00
8214;DHT22;4148;47.974;7.824;2024-03-08T00:52:35;2.80;1.00
8214;DHT22;4148;47.974;7.824;2024-03-08T00:55:03;2.70;1.00
8214;DHT22;4148;47.974;7.824;2024-03-08T00:57:31;2.70;1.00
8214;DHT22;4148;47.974;7.824;2024-03-08T01:00:03;2.50;1.00
8214;DHT22;4148;47.974;7.824;2024-03-08T01:02:31;2.50;99.90
8214;DHT22;4148;47.974;7.824;2024-03-08T01:05:00;2.60;99.90
8214;DHT22;4148;47.974;7.824;2024-03-08T01:07:28;2.50;99.90
8214;DHT22;4148;47.974;7.824;2024-03-08T01:09:55;2.50;6.40
8214;DHT22;4148;47.974;7.824;2024-03-08T01:12:24;2.40;22.30
8214;DHT22;4148;47.974;7.824;2024-03-08T01:14:52;2.30;99.90
8214;DHT22;4148;47.974;7.824;2024-03-08T01:17:21;2.20;1.00
8214;DHT22;4148;47.974;7.824;2024-03-08T01:19:49;2.10;99.90
8214;DHT22;4148;47.974;7.824;2024-03-08T01:22:17;2.00;99.90
8214;DHT22;4148;47.974;7.824;2024-03-08T01:24:45;2.10;1.00
8214;DHT22;4148;47.974;7.824;2024-03-08T01:27:13;1.80;99.90
8214;DHT22;4148;47.974;7.824;2024-03-08T01:29:41;1.80;99.90
8214;DHT22;4148;47.974;7.824;2024-03-08T01:32:09;1.70;99.90
8214;DHT22;4148;47.974;7.824;2024-03-08T01:34:38;1.70;1.00
8214;DHT22;4148;47.974;7.824;2024-03-08T01:37:06;1.70;99.90
8214;DHT22;4148;47.974;7.824;2024-03-08T01:39:34;1.70;99.90
8214;DHT22;4148;47.974;7.824;2024-03-08T01:42:02;1.60;99.90
8214;DHT22;4148;47.974;7.824;2024-03-08T01:44:30;1.80;1.00
8214;DHT22;4148;47.974;7.824;2024-03-08T01:46:58;1.90;99.90
8214;DHT22;4148;47.974;7.824;2024-03-08T01:49:27;1.90;99.90
8214;DHT22;4148;47.974;7.824;2024-03-08T01:51:57;1.80;99.90
8214;DHT22;4148;47.974;7.824;2024-03-08T01:54:25;1.70;99.90
8214;DHT22;4148;47.974;7.824;2024-03-08T01:56:54;1.60;99.90
8214;DHT22;4148;47.974;7.824;2024-03-08T01:59:22;1.60;99.90
8214;DHT22;4148;47.974;7.824;2024-03-08T02:01:50;1.60;1.00
8214;DHT22;4148;47.974;7.824;2024-03-08T02:04:19;1.80;1.00
8214;DHT22;4148;47.974;7.824;2024-03-08T02:06:48;1.70;99.90
8214;DHT22;4148;47.974;7.824;2024-03-08T02:09:17;1.60;1.00
8214;DHT22;4148;47.974;7.824;2024-03-08T02:11:46;1.60;1.00
8214;DHT22;4148;47.974;7.824;2024-03-08T02:14:14;1.60;1.00
8214;DHT22;4148;47.974;7.824;2024-03-08T02:16:42;1.60;1.00
8214;DHT22;4148;47.974;7.824;2024-03-08T02:19:10;1.60;1.00
8214;DHT22;4148;47.974;7.824;2024-03-08T02:21:39;1.70;1.00
8214;DHT22;4148;47.974;7.824;2024-03-08T02:24:07;1.70;99.90
8214;DHT22;4148;47.974;7.824;2024-03-08T02:26:35;1.80;1.00
8214;DHT22;4148;47.974;7.824;2024-03-08T02:29:04;1.80;99.90
8214;DHT22;4148;47.974;7.824;2024-03-08T02:31:32;1.80;99.90
8214;DHT22;4148;47.974;7.824;2024-03-08T02:33:59;1.80;99.90
8214;DHT22;4148;47.974;7.824;2024-03-08T02:36:27;1.70;99.90
8214;DHT22;4148;47.974;7.824;2024-03-08T02:38:57;1.60;1.00
8214;DHT22;4148;47.974;7.824;2024-03-08T02:41:25;1.70;1.00
8214;DHT22;4148;47.974;7.824;2024-03-08T02:43:53;2.00;99.90
8214;DHT22;4148;47.974;7.824;2024-03-08T02:46:22;1.70;99.90
8214;DHT22;4148;47.974;7.824;2024-03-08T02:48:50;1.60;99.90
8214;DHT22;4148;47.974;7.824;2024-03-08T02:51:18;1.50;1.00
8214;DHT22;4148;47.974;7.824;2024-03-08T02:53:47;1.60;1.00
8214;DHT22;4148;47.974;7.824;2024-03-08T02:56:19;1.40;99.90
8214;DHT22;4148;47.974;7.824;2024-03-08T02:58:48;1.40;1.00
8214;DHT22;4148;47.974;7.824;2024-03-08T03:01:16;1.40;1.00
8214;DHT22;4148;47.974;7.824;2024-03-08T03:03:47;1.30;1.00
8214;DHT22;4148;47.974;7.824;2024-03-08T03:06:15;1.50;1.00
8214;DHT22;4148;47.974;7.824;2024-03-08T03:08:43;1.80;1.00
8214;DHT22;4148;47.974;7.824;2024-03-08T03:11:12;2.00;1.00
8214;DHT22;4148;47.974;7.824;2024-03-08T03:13:42;2.00;99.90
8214;DHT22;4148;47.974;7.824;2024-03-08T03:16:17;2.10;99.90
8214;DHT22;4148;47.974;7.824;2024-03-08T03:18:46;2.00;99.90
8214;DHT22;4148;47.974;7.824;2024-03-08T03:21:15;2.10;99.90
8214;DHT22;4148;47.974;7.824;2024-03-08T03:23:44;2.00;99.90
8214;DHT22;4148;47.974;7.824;2024-03-08T03:26:12;2.10;99.90
8214;DHT22;4148;47.974;7.824;2024-03-08T03:28:41;2.20;99.90
8214;DHT22;4148;47.974;7.824;2024-03-08T03:31:10;2.20;99.90
8214;DHT22;4148;47.974;7.824;2024-03-08T03:33:40;2.20;89.10
8214;DHT22;4148;47.974;7.824;2024-03-08T03:36:09;2.00;99.90
8214;DHT22;4148;47.974;7.824;2024-03-08T03:38:37;1.90;99.90
8214;DHT22;4148;47.974;7.824;2024-03-08T03:41:05;1.90;99.90
8214;DHT22;4148;47.974;7.824;2024-03-08T03:43:37;1.80;99.90
8214;DHT22;4148;47.974;7.824;2024-03-08T03:46:07;1.60;99.90
8214;DHT22;4148;47.974;7.824;2024-03-08T03:48:37;1.60;99.90
8214;DHT22;4148;47.974;7.824;2024-03-08T03:51:05;1.50;99.90
8214;DHT22;4148;47.974;7.824;2024-03-08T03:53:34;1.30;99.90
8214;DHT22;4148;47.974;7.824;2024-03-08T03:56:02;1.20;1.00
8214;DHT22;4148;47.974;7.824;2024-03-08T03:58:33;1.10;1.00
8214;DHT22;4148;47.974;7.824;2024-03-08T04:01:04;1.10;1.00
8214;DHT22;4148;47.974;7.824;2024-03-08T04:03:33;1.10;1.00
8214;DHT22;4148;47.974;7.824;2024-03-08T04:06:01;1.10;1.00
8214;DHT22;4148;47.974;7.824;2024-03-08T04:08:30;1.00;1.00
8214;DHT22;4148;47.974;7.824;2024-03-08T04:10:58;0.90;1.00
8214;DHT22;4148;47.974;7.824;2024-03-08T04:13:26;1.10;1.00
8214;DHT22;4148;47.974;7.824;2024-03-08T04:15:54;1.30;1.00
8214;DHT22;4148;47.974;7.824;2024-03-08T04:18:22;1.20;1.00
8214;DHT22;4148;47.974;7.824;2024-03-08T04:20:51;1.20;1.00
8214;DHT22;4148;47.974;7.824;2024-03-08T04:23:19;1.00;1.00
8214;DHT22;4148;47.974;7.824;2024-03-08T04:25:47;0.80;1.00
8214;DHT22;4148;47.974;7.824;2024-03-08T04:28:15;1.10;1.00
8214;DHT22;4148;47.974;7.824;2024-03-08T04:30:43;1.40;1.00
8214;DHT22;4148;47.974;7.824;2024-03-08T04:33:12;1.60;1.00
8214;DHT22;4148;47.974;7.824;2024-03-08T04:35:41;1.50;99.90
8214;DHT22;4148;47.974;7.824;2024-03-08T04:38:14;1.20;1.00
8214;DHT22;4148;47.974;7.824;2024-03-08T04:40:42;1.30;1.00
8214;DHT22;4148;47.974;7.824;2024-03-08T04:43:10;1.00;1.00
8214;DHT22;4148;47.974;7.824;2024-03-08T04:45:38;0.80;1.00
8214;DHT22;4148;47.974;7.824;2024-03-08T04:48:07;0.70;1.00
8214;DHT22;4148;47.974;7.824;2024-03-08T04:50:36;0.80;1.00
8214;DHT22;4148;47.974;7.824;2024-03-08T04:53:04;0.80;1.00
8214;DHT22;4148;47.974;7.824;2024-03-08T04:55:36;0.70;1.00
8214;DHT22;4148;47.974;7.824;2024-03-08T04:58:04;0.60;1.00
8214;DHT22;4148;47.974;7.824;2024-03-08T05:00:32;0.40;1.00
8214;DHT22;4148;47.974;7.824;2024-03-08T05:03:00;0.40;1.00
8214;DHT22;4148;47.974;7.824;2024-03-08T05:05:28;0.60;1.00
8214;DHT22;4148;47.974;7.824;2024-03-08T05:07:57;0.90;1.00
8214;DHT22;4148;47.974;7.824;2024-03-08T05:10:24;1.00;1.00
8214;DHT22;4148;47.974;7.824;2024-03-08T05:12:54;1.10;1.00
8214;DHT22;4148;47.974;7.824;2024-03-08T05:15:23;1.10;1.00
8214;DHT22;4148;47.974;7.824;2024-03-08T05:17:51;0.90;1.00
8214;DHT22;4148;47.974;7.824;2024-03-08T05:20:19;0.70;1.00
8214;DHT22;4148;47.974;7.824;2024-03-08T05:22:48;0.50;1.00
8214;DHT22;4148;47.974;7.824;2024-03-08T05:25:17;0.60;1.00
8214;DHT22;4148;47.974;7.824;2024-03-08T05:27:45;0.60;1.00
8214;DHT22;4148;47.974;7.824;2024-03-08T05:30:15;0.60;1.00
8214;DHT22;4148;47.974;7.824;2024-03-08T05:32:43;0.90;1.00
8214;DHT22;4148;47.974;7.824;2024-03-08T05:35:12;0.90;1.00
8214;DHT22;4148;47.974;7.824;2024-03-08T05:37:43;0.90;1.00
8214;DHT22;4148;47.974;7.824;2024-03-08T05:40:11;1.00;1.00
8214;DHT22;4148;47.974;7.824;2024-03-08T05:42:44;0.90;1.00
8214;DHT22;4148;47.974;7.824;2024-03-08T05:45:12;1.00;1.00
8214;DHT22;4148;47.974;7.824;2024-03-08T05:47:43;1.00;1.00
8214;DHT22;4148;47.974;7.824;2024-03-08T05:50:11;1.00;1.00
8214;DHT22;4148;47.974;7.824;2024-03-08T05:52:39;0.80;1.00
8214;DHT22;4148;47.974;7.824;2024-03-08T05:55:07;0.80;1.00
8214;DHT22;4148;47.974;7.824;2024-03-08T05:57:37;0.70;1.00
8214;DHT22;4148;47.974;7.824;2024-03-08T06:00:07;1.10;1.00
8214;DHT22;4148;47.974;7.824;2024-03-08T06:02:38;1.20;1.00
8214;DHT22;4148;47.974;7.824;2024-03-08T06:05:10;1.10;1.00
8214;DHT22;4148;47.974;7.824;2024-03-08T06:07:38;0.80;1.00
8214;DHT22;4148;47.974;7.824;2024-03-08T06:10:08;0.80;1.00
8214;DHT22;4148;47.974;7.824;2024-03-08T06:12:39;0.90;1.00
8214;DHT22;4148;47.974;7.824;2024-03-08T06:15:09;1.00;1.00
8214;DHT22;4148;47.974;7.824;2024-03-08T06:17:41;0.90;1.00
8214;DHT22;4148;47.974;7.824;2024-03-08T06:20:11;0.80;1.00
8214;DHT22;4148;47.974;7.824;2024-03-08T06:22:40;0.60;1.00
8214;DHT22;4148;47.974;7.824;2024-03-08T06:25:08;0.50;1.00
8214;DHT22;4148;47.974;7.824;2024-03-08T06:27:38;0.40;1.00
8214;DHT22;4148;47.974;7.824;2024-03-08T06:30:07;0.40;1.00
8214;DHT22;4148;47.974;7.824;2024-03-08T06:32:36;0.30;1.00
8214;DHT22;4148;47.974;7.824;2024-03-08T06:35:05;0.30;1.00
8214;DHT22;4148;47.974;7.824;2024-03-08T06:37:35;0.40;1.00
8214;DHT22;4148;47.974;7.824;2024-03-08T06:40:03;0.40;1.00
8214;DHT22;4148;47.974;7.824;2024-03-08T06:42:31;0.40;1.00
8214;DHT22;4148;47.974;7.824;2024-03-08T06:45:01;0.50;1.00
8214;DHT22;4148;47.974;7.824;2024-03-08T06:47:32;0.50;1.00
8214;DHT22;4148;47.974;7.824;2024-03-08T06:50:00;0.50;1.00
8214;DHT22;4148;47.974;7.824;2024-03-08T06:52:28;0.80;1.00
8214;DHT22;4148;47.974;7.824;2024-03-08T06:54:57;0.70;1.00
8214;DHT22;4148;47.974;7.824;2024-03-08T06:57:27;0.70;1.00
8214;DHT22;4148;47.974;7.824;2024-03-08T06:59:56;0.70;1.00
8214;DHT22;4148;47.974;7.824;2024-03-08T07:04:53;0.80;1.00
8214;DHT22;4148;47.974;7.824;2024-03-08T07:07:21;0.90;1.00
8214;DHT22;4148;47.974;7.824;2024-03-08T07:09:49;0.90;1.00
8214;DHT22;4148;47.974;7.824;2024-03-08T07:12:18;1.00;1.00
8214;DHT22;4148;47.974;7.824;2024-03-08T07:14:47;1.00;1.00
8214;DHT22;4148;47.974;7.824;2024-03-08T07:17:15;1.00;1.00
8214;DHT22;4148;47.974;7.824;2024-03-08T07:19:43;1.20;1.00
8214;DHT22;4148;47.974;7.824;2024-03-08T07:22:11;1.40;1.00
8214;DHT22;4148;47.974;7.824;2024-03-08T07:24:40;1.60;1.00
8214;DHT22;4148;47.974;7.824;2024-03-08T07:27:24;1.60;1.00
8214;DHT22;4148;47.974;7.824;2024-03-08T07:29:52;1.60;1.00
8214;DHT22;4148;47.974;7.824;2024-03-08T07:32:34;1.70;1.00
8214;DHT22;4148;47.974;7.824;2024-03-08T07:35:02;1.70;1.00
8214;DHT22;4148;47.974;7.824;2024-03-08T07:37:32;1.80;1.00
8214;DHT22;4148;47.974;7.824;2024-03-08T07:40:00;2.10;1.00
8214;DHT22;4148;47.974;7.824;2024-03-08T07:42:30;2.10;1.00
8214;DHT22;4148;47.974;7.824;2024-03-08T07:44:58;2.20;1.00
8214;DHT22;4148;47.974;7.824;2024-03-08T07:47:26;2.20;1.00
8214;DHT22;4148;47.974;7.824;2024-03-08T07:49:54;2.30;1.00
8214;DHT22;4148;47.974;7.824;2024-03-08T07:52:22;2.50;1.00
8214;DHT22;4148;47.974;7.824;2024-03-08T07:54:50;2.80;1.00
8214;DHT22;4148;47.974;7.824;2024-03-08T07:57:18;2.90;1.00
8214;DHT22;4148;47.974;7.824;2024-03-08T07:59:48;3.20;1.00
8214;DHT22;4148;47.974;7.824;2024-03-08T08:02:16;3.40;99.90
8214;DHT22;4148;47.974;7.824;2024-03-08T08:04:45;3.50;1.00
8214;DHT22;4148;47.974;7.824;2024-03-08T08:07:13;3.60;99.90
8214;DHT22;4148;47.974;7.824;2024-03-08T08:09:41;3.60;99.90
8214;DHT22;4148;47.974;7.824;2024-03-08T08:12:09;3.90;99.90
8214;DHT22;4148;47.974;7.824;2024-03-08T08:14:38;4.00;1.00
8214;DHT22;4148;47.974;7.824;2024-03-08T08:17:09;4.10;1.00
8214;DHT22;4148;47.974;7.824;2024-03-08T08:19:37;4.20;99.90
8214;DHT22;4148;47.974;7.824;2024-03-08T08:22:05;4.30;99.90
8214;DHT22;4148;47.974;7.824;2024-03-08T08:24:35;4.50;99.90
8214;DHT22;4148;47.974;7.824;2024-03-08T08:27:04;4.50;1.00
8214;DHT22;4148;47.974;7.824;2024-03-08T08:29:32;4.70;99.90
8214;DHT22;4148;47.974;7.824;2024-03-08T08:32:00;4.90;1.00
8214;DHT22;4148;47.974;7.824;2024-03-08T08:34:31;5.10;99.90
8214;DHT22;4148;47.974;7.824;2024-03-08T08:36:59;5.40;99.90
8214;DHT22;4148;47.974;7.824;2024-03-08T08:39:27;6.10;1.00
8214;DHT22;4148;47.974;7.824;2024-03-08T08:41:55;7.00;1.00
8214;DHT22;4148;47.974;7.824;2024-03-08T08:44:23;8.00;44.90
8214;DHT22;4148;47.974;7.824;2024-03-08T08:46:52;9.00;99.90
8214;DHT22;4148;47.974;7.824;2024-03-08T08:49:28;9.90;66.80
8214;DHT22;4148;47.974;7.824;2024-03-08T08:51:58;10.80;1.00
8214;DHT22;4148;47.974;7.824;2024-03-08T08:54:37;11.20;1.00
8214;DHT22;4148;47.974;7.824;2024-03-08T08:57:05;11.60;1.00
8214;DHT22;4148;47.974;7.824;2024-03-08T08:59:34;12.30;99.90
8214;DHT22;4148;47.974;7.824;2024-03-08T09:04:32;13.10;99.90
8214;DHT22;4148;47.974;7.824;2024-03-08T09:07:01;13.30;99.90
8214;DHT22;4148;47.974;7.824;2024-03-08T09:09:33;13.80;99.90
8214;DHT22;4148;47.974;7.824;2024-03-08T09:12:01;14.00;99.90
8214;DHT22;4148;47.974;7.824;2024-03-08T09:14:29;14.00;99.90
8214;DHT22;4148;47.974;7.824;2024-03-08T09:16:57;14.20;99.90
8214;DHT22;4148;47.974;7.824;2024-03-08T09:19:25;14.70;99.90
8214;DHT22;4148;47.974;7.824;2024-03-08T09:21:53;15.00;99.90
8214;DHT22;4148;47.974;7.824;2024-03-08T09:24:22;15.10;99.90
8214;DHT22;4148;47.974;7.824;2024-03-08T09:26:50;15.40;99.90
8214;DHT22;4148;47.974;7.824;2024-03-08T09:29:18;15.40;99.90
8214;DHT22;4148;47.974;7.824;2024-03-08T09:31:46;15.30;99.90
8214;DHT22;4148;47.974;7.824;2024-03-08T09:34:14;15.10;99.90
8214;DHT22;4148;47.974;7.824;2024-03-08T09:36:50;15.40;99.90
8214;DHT22;4148;47.974;7.824;2024-03-08T09:39:19;15.70;99.90
8214;DHT22;4148;47.974;7.824;2024-03-08T09:41:51;15.60;99.90
8214;DHT22;4148;47.974;7.824;2024-03-08T09:44:19;15.60;99.90
8214;DHT22;4148;47.974;7.824;2024-03-08T09:46:47;15.80;99.90
8214;DHT22;4148;47.974;7.824;2024-03-08T09:49:15;16.00;99.90
8214;DHT22;4148;47.974;7.824;2024-03-08T09:51:44;16.20;99.90
8214;DHT22;4148;47.974;7.824;2024-03-08T09:54:13;16.30;99.90
8214;DHT22;4148;47.974;7.824;2024-03-08T09:56:48;16.60;99.90
8214;DHT22;4148;47.974;7.824;2024-03-08T09:59:20;16.30;99.90
8214;DHT22;4148;47.974;7.824;2024-03-08T10:04:42;16.70;99.90
8214;DHT22;4148;47.974;7.824;2024-03-08T10:07:13;16.80;99.90
8214;DHT22;4148;47.974;7.824;2024-03-08T10:09:41;16.80;99.90
8214;DHT22;4148;47.974;7.824;2024-03-08T10:12:15;16.80;99.90
8214;DHT22;4148;47.974;7.824;2024-03-08T10:14:45;16.80;99.90
8214;DHT22;4148;47.974;7.824;2024-03-08T10:17:13;17.00;99.90
8214;DHT22;4148;47.974;7.824;2024-03-08T10:19:49;17.20;99.90
8214;DHT22;4148;47.974;7.824;2024-03-08T10:22:18;17.50;99.90
8214;DHT22;4148;47.974;7.824;2024-03-08T10:24:46;17.90;99.90
8214;DHT22;4148;47.974;7.824;2024-03-08T10:27:16;17.50;99.90
8214;DHT22;4148;47.974;7.824;2024-03-08T10:29:47;16.90;99.90
8214;DHT22;4148;47.974;7.824;2024-03-08T10:32:18;17.00;99.90
8214;DHT22;4148;47.974;7.824;2024-03-08T10:34:47;17.00;99.90
8214;DHT22;4148;47.974;7.824;2024-03-08T10:37:21;17.10;99.90
8214;DHT22;4148;47.974;7.824;2024-03-08T10:39:59;17.50;99.90
8214;DHT22;4148;47.974;7.824;2024-03-08T10:42:40;17.70;99.90
8214;DHT22;4148;47.974;7.824;2024-03-08T10:45:15;17.40;99.90
8214;DHT22;4148;47.974;7.824;2024-03-08T10:47:46;17.70;99.90
8214;DHT22;4148;47.974;7.824;2024-03-08T10:50:18;17.60;99.90
8214;DHT22;4148;47.974;7.824;2024-03-08T10:52:49;17.80;99.90
8214;DHT22;4148;47.974;7.824;2024-03-08T10:55:18;18.30;99.90
8214;DHT22;4148;47.974;7.824;2024-03-08T10:57:47;18.40;99.90
8214;DHT22;4148;47.974;7.824;2024-03-08T11:00:17;18.30;99.90
8214;DHT22;4148;47.974;7.824;2024-03-08T11:02:53;18.10;99.90
8214;DHT22;4148;47.974;7.824;2024-03-08T11:05:32;18.60;99.90
8214;DHT22;4148;47.974;7.824;2024-03-08T11:08:03;18.30;99.90
8214;DHT22;4148;47.974;7.824;2024-03-08T11:10:31;18.70;99.90
8214;DHT22;4148;47.974;7.824;2024-03-08T11:12:59;18.60;99.90
8214;DHT22;4148;47.974;7.824;2024-03-08T11:15:29;18.50;99.90
8214;DHT22;4148;47.974;7.824;2024-03-08T11:18:00;18.30;99.90
8214;DHT22;4148;47.974;7.824;2024-03-08T11:20:29;18.50;99.90
8214;DHT22;4148;47.974;7.824;2024-03-08T11:23:00;17.70;99.90
8214;DHT22;4148;47.974;7.824;2024-03-08T11:25:36;17.50;99.90
8214;DHT22;4148;47.974;7.824;2024-03-08T11:28:10;17.60;99.90
8214;DHT22;4148;47.974;7.824;2024-03-08T11:30:46;17.60;99.90
8214;DHT22;4148;47.974;7.824;2024-03-08T11:33:15;17.30;99.90
8214;DHT22;4148;47.974;7.824;2024-03-08T11:35:44;17.60;99.90
8214;DHT22;4148;47.974;7.824;2024-03-08T11:38:12;17.30;99.90
8214;DHT22;4148;47.974;7.824;2024-03-08T11:40:46;17.40;99.90
8214;DHT22;4148;47.974;7.824;2024-03-08T11:43:16;17.20;99.90
8214;DHT22;4148;47.974;7.824;2024-03-08T11:45:46;17.30;99.90
8214;DHT22;4148;47.974;7.824;2024-03-08T11:48:14;17.10;99.90
8214;DHT22;4148;47.974;7.824;2024-03-08T11:50:41;17.10;99.90
8214;DHT22;4148;47.974;7.824;2024-03-08T11:53:10;16.50;99.90
8214;DHT22;4148;47.974;7.824;2024-03-08T11:55:40;16.60;99.90
8214;DHT22;4148;47.974;7.824;2024-03-08T11:58:09;16.70;99.90
8214;DHT22;4148;47.974;7.824;2024-03-08T12:00:37;16.50;99.90
8214;DHT22;4148;47.974;7.824;2024-03-08T12:03:08;16.30;99.90
8214;DHT22;4148;47.974;7.824;2024-03-08T12:08:05;16.80;99.90
8214;DHT22;4148;47.974;7.824;2024-03-08T12:10:36;16.80;99.90
8214;DHT22;4148;47.974;7.824;2024-03-08T12:13:04;16.40;99.90
8214;DHT22;4148;47.974;7.824;2024-03-08T12:15:39;16.40;99.90
8214;DHT22;4148;47.974;7.824;2024-03-08T12:18:09;16.20;99.90
8214;DHT22;4148;47.974;7.824;2024-03-08T12:20:39;16.00;99.90
8214;DHT22;4148;47.974;7.824;2024-03-08T12:23:13;15.70;99.90
8214;DHT22;4148;47.974;7.824;2024-03-08T12:25:42;15.60;99.90
8214;DHT22;4148;47.974;7.824;2024-03-08T12:28:11;15.30;99.90
8214;DHT22;4148;47.974;7.824;2024-03-08T12:30:48;15.10;99.90
8214;DHT22;4148;47.974;7.824;2024-03-08T12:33:19;15.10;99.90
8214;DHT22;4148;47.974;7.824;2024-03-08T12:35:53;14.80;99.90
8214;DHT22;4148;47.974;7.824;2024-03-08T12:38:22;14.60;99.90
8214;DHT22;4148;47.974;7.824;2024-03-08T12:40:55;14.50;99.90
8214;DHT22;4148;47.974;7.824;2024-03-08T12:43:24;14.50;99.90
8214;DHT22;4148;47.974;7.824;2024-03-08T12:45:52;14.20;99.90
8214;DHT22;4148;47.974;7.824;2024-03-08T12:48:22;14.30;99.90
8214;DHT22;4148;47.974;7.824;2024-03-08T12:50:50;14.00;99.90
8214;DHT22;4148;47.974;7.824;2024-03-08T12:53:18;14.10;99.90
8214;DHT22;4148;47.974;7.824;2024-03-08T12:55:46;14.00;99.90
8214;DHT22;4148;47.974;7.824;2024-03-08T12:58:14;14.00;99.90
8214;DHT22;4148;47.974;7.824;2024-03-08T13:00:43;13.70;99.90
8214;DHT22;4148;47.974;7.824;2024-03-08T13:03:12;13.40;99.90
8214;DHT22;4148;47.974;7.824;2024-03-08T13:05:41;13.50;99.90
8214;DHT22;4148;47.974;7.824;2024-03-08T13:08:09;13.40;99.90
8214;DHT22;4148;47.974;7.824;2024-03-08T13:10:40;13.40;99.90
8214;DHT22;4148;47.974;7.824;2024-03-08T13:13:11;13.30;99.90
8214;DHT22;4148;47.974;7.824;2024-03-08T13:15:40;13.20;99.90
8214;DHT22;4148;47.974;7.824;2024-03-08T13:18:09;13.10;99.90
8214;DHT22;4148;47.974;7.824;2024-03-08T13:20:37;13.10;99.90
8214;DHT22;4148;47.974;7.824;2024-03-08T13:23:15;13.10;99.90
8214;DHT22;4148;47.974;7.824;2024-03-08T13:25:44;13.10;99.90
8214;DHT22;4148;47.974;7.824;2024-03-08T13:28:14;13.00;99.90
8214;DHT22;4148;47.974;7.824;2024-03-08T13:30:43;13.00;99.90
8214;DHT22;4148;47.974;7.824;2024-03-08T13:33:12;13.00;99.90
8214;DHT22;4148;47.974;7.824;2024-03-08T13:35:41;12.90;99.90
8214;DHT22;4148;47.974;7.824;2024-03-08T13:38:09;12.90;99.90
8214;DHT22;4148;47.974;7.824;2024-03-08T13:40:41;12.70;99.90
8214;DHT22;4148;47.974;7.824;2024-03-08T13:43:09;12.70;99.90
8214;DHT22;4148;47.974;7.824;2024-03-08T13:45:37;12.60;99.90
8214;DHT22;4148;47.974;7.824;2024-03-08T13:48:06;12.60;99.90
8214;DHT22;4148;47.974;7.824;2024-03-08T13:50:34;12.60;99.90
8214;DHT22;4148;47.974;7.824;2024-03-08T13:53:02;12.50;99.90
8214;DHT22;4148;47.974;7.824;2024-03-08T13:55:30;12.50;99.90
8214;DHT22;4148;47.974;7.824;2024-03-08T13:58:01;12.50;99.90
8214;DHT22;4148;47.974;7.824;2024-03-08T14:00:29;12.40;99.90
8214;DHT22;4148;47.974;7.824;2024-03-08T14:03:00;12.40;99.90
8214;DHT22;4148;47.974;7.824;2024-03-08T14:05:32;12.40;99.90
8214;DHT22;4148;47.974;7.824;2024-03-08T14:08:01;12.40;99.90
8214;DHT22;4148;47.974;7.824;2024-03-08T14:10:31;12.50;99.90
8214;DHT22;4148;47.974;7.824;2024-03-08T14:12:58;12.40;99.90
8214;DHT22;4148;47.974;7.824;2024-03-08T14:15:28;12.40;99.90
8214;DHT22;4148;47.974;7.824;2024-03-08T14:17:57;12.30;99.90
8214;DHT22;4148;47.974;7.824;2024-03-08T14:20:25;12.40;99.90
8214;DHT22;4148;47.974;7.824;2024-03-08T14:22:53;12.30;99.90
8214;DHT22;4148;47.974;7.824;2024-03-08T14:25:22;12.20;99.90
8214;DHT22;4148;47.974;7.824;2024-03-08T14:27:51;12.20;99.90
8214;DHT22;4148;47.974;7.824;2024-03-08T14:30:20;12.10;99.90
8214;DHT22;4148;47.974;7.824;2024-03-08T14:33:05;12.10;99.90
8214;DHT22;4148;47.974;7.824;2024-03-08T14:35:36;12.10;99.90
8214;DHT22;4148;47.974;7.824;2024-03-08T14:38:04;12.00;99.90
8214;DHT22;4148;47.974;7.824;2024-03-08T14:40:35;12.00;99.90
8214;DHT22;4148;47.974;7.824;2024-03-08T14:43:04;12.10;99.90
8214;DHT22;4148;47.974;7.824;2024-03-08T14:45:32;11.90;99.90
8214;DHT22;4148;47.974;7.824;2024-03-08T14:48:01;11.90;99.90
8214;DHT22;4148;47.974;7.824;2024-03-08T14:50:33;11.90;99.90
8214;DHT22;4148;47.974;7.824;2024-03-08T14:53:04;11.80;99.90
8214;DHT22;4148;47.974;7.824;2024-03-08T14:55:33;11.80;99.90
8214;DHT22;4148;47.974;7.824;2024-03-08T14:58:02;11.90;99.90
8214;DHT22;4148;47.974;7.824;2024-03-08T15:00:31;11.90;99.90
8214;DHT22;4148;47.974;7.824;2024-03-08T15:03:01;11.80;99.90
8214;DHT22;4148;47.974;7.824;2024-03-08T15:05:33;11.80;99.90
8214;DHT22;4148;47.974;7.824;2024-03-08T15:08:06;11.80;99.90
8214;DHT22;4148;47.974;7.824;2024-03-08T15:10:38;11.90;99.90
8214;DHT22;4148;47.974;7.824;2024-03-08T15:13:09;11.80;99.90
8214;DHT22;4148;47.974;7.824;2024-03-08T15:15:43;11.80;99.90
8214;DHT22;4148;47.974;7.824;2024-03-08T15:18:11;11.80;99.90
8214;DHT22;4148;47.974;7.824;2024-03-08T15:20:40;11.80;99.90
8214;DHT22;4148;47.974;7.824;2024-03-08T15:23:08;11.90;99.90
8214;DHT22;4148;47.974;7.824;2024-03-08T15:25:37;11.90;99.90
8214;DHT22;4148;47.974;7.824;2024-03-08T15:28:08;12.00;99.90
8214;DHT22;4148;47.974;7.824;2024-03-08T15:30:41;11.90;99.90
8214;DHT22;4148;47.974;7.824;2024-03-08T15:33:13;11.90;99.90
8214;DHT22;4148;47.974;7.824;2024-03-08T15:35:43;12.00;99.90
8214;DHT22;4148;47.974;7.824;2024-03-08T15:38:15;12.00;99.90
8214;DHT22;4148;47.974;7.824;2024-03-08T15:40:45;12.10;99.90
8214;DHT22;4148;47.974;7.824;2024-03-08T15:43:14;12.10;99.90
8214;DHT22;4148;47.974;7.824;2024-03-08T15:45:43;12.20;99.90
8214;DHT22;4148;47.974;7.824;2024-03-08T15:48:11;12.20;99.90
8214;DHT22;4148;47.974;7.824;2024-03-08T15:50:39;12.30;99.90
8214;DHT22;4148;47.974;7.824;2024-03-08T15:53:08;12.30;99.90
8214;DHT22;4148;47.974;7.824;2024-03-08T15:55:38;12.20;99.90
8214;DHT22;4148;47.974;7.824;2024-03-08T15:58:07;12.20;99.90
8214;DHT22;4148;47.974;7.824;2024-03-08T16:00:39;12.10;99.90
8214;DHT22;4148;47.974;7.824;2024-03-08T16:03:14;12.00;99.90
8214;DHT22;4148;47.974;7.824;2024-03-08T16:05:43;11.90;99.90
8214;DHT22;4148;47.974;7.824;2024-03-08T16:08:13;11.90;99.90
8214;DHT22;4148;47.974;7.824;2024-03-08T16:10:43;11.80;99.90
8214;DHT22;4148;47.974;7.824;2024-03-08T16:13:14;11.80;99.90
8214;DHT22;4148;47.974;7.824;2024-03-08T16:15:43;11.70;99.90
8214;DHT22;4148;47.974;7.824;2024-03-08T16:18:15;11.70;99.90
8214;DHT22;4148;47.974;7.824;2024-03-08T16:20:43;11.60;99.90
8214;DHT22;4148;47.974;7.824;2024-03-08T16:23:15;11.60;99.90
8214;DHT22;4148;47.974;7.824;2024-03-08T16:25:43;11.50;99.90
8214;DHT22;4148;47.974;7.824;2024-03-08T16:28:12;11.40;99.90
8214;DHT22;4148;47.974;7.824;2024-03-08T16:30:44;11.30;99.90
8214;DHT22;4148;47.974;7.824;2024-03-08T16:33:17;11.30;99.90
8214;DHT22;4148;47.974;7.824;2024-03-08T16:35:45;11.20;99.90
8214;DHT22;4148;47.974;7.824;2024-03-08T16:38:15;11.10;99.90
8214;DHT22;4148;47.974;7.824;2024-03-08T16:40:45;11.00;99.90